Time;durP1;ratioP1;P1;durP2;ratioP2;P2;SDS_P1;SDS_P2;PMS_P1;PMS_P2;Temp;Humidity;BMP_temperature;BMP_pressure;BME280_temperature;BME280_humidity;BME280_pressure;Samples;Min_cycle;Max_cycle;Signal;HPM_P1;HPM_P2
2021/03/16 00:02:32;;;;;;;64.72;31.65;;;;;;;;;;5017228;28;20132;-65
2021/03/16 00:04:58;;;;;;;61.20;32.38;;;;;;;;;;4999017;28;20125;-64
2021/03/16 00:07:27;;;;;;;78.43;39.83;;;;;;;;;;4999099;28;20024;-65
2021/03/16 00:09:53;;;;;;;85.55;41.80;;;;;;;;;;4999148;28;20393;-65
2021/03/16 00:12:18;;;;;;;89.70;43.33;;;;;;;;;;5016694;28;20018;-65
2021/03/16 00:14:44;;;;;;;89.47;44.88;;;;;;;;;;5016038;28;20048;-64
2021/03/16 00:17:09;;;;;;;69.05;36.50;;;;;;;;;;5016630;28;20033;-64
2021/03/16 00:19:35;;;;;;;68.50;35.97;;;;;;;;;;5016759;28;20115;-64
2021/03/16 00:22:01;;;;;;;69.88;36.90;;;;;;;;;;4999177;28;20024;-65
2021/03/16 00:24:27;;;;;;;69.78;35.75;;;;;;;;;;5016427;28;20022;-64
2021/03/16 00:26:52;;;;;;;73.75;37.83;;;;;;;;;;4998840;28;20128;-64
2021/03/16 00:29:18;;;;;;;69.18;36.30;;;;;;;;;;5016191;28;20092;-64
2021/03/16 00:31:49;;;;;;;75.95;38.08;;;;;;;;;;5016432;28;20028;-64
2021/03/16 00:34:14;;;;;;;94.15;48.67;;;;;;;;;;5016153;28;20386;-64
2021/03/16 00:36:40;;;;;;;72.43;38.45;;;;;;;;;;5016253;28;20026;-64
2021/03/16 00:39:06;;;;;;;83.13;42.88;;;;;;;;;;5016015;28;20022;-64
2021/03/16 00:41:31;;;;;;;78.97;40.60;;;;;;;;;;5016152;28;20014;-64
2021/03/16 00:43:57;;;;;;;66.97;33.78;;;;;;;;;;5016009;28;20083;-64
2021/03/16 00:46:22;;;;;;;59.58;32.03;;;;;;;;;;4998482;28;20041;-65
2021/03/16 00:48:48;;;;;;;62.08;32.53;;;;;;;;;;5015952;28;20033;-65
2021/03/16 00:51:16;;;;;;;61.67;31.98;;;;;;;;;;5031266;28;20049;-65
2021/03/16 00:53:43;;;;;;;59.53;31.48;;;;;;;;;;4998303;28;20040;-65
2021/03/16 00:56:10;;;;;;;58.00;30.42;;;;;;;;;;5015981;28;20026;-64
2021/03/16 00:58:36;;;;;;;65.00;32.92;;;;;;;;;;5015821;28;20478;-64
2021/03/16 01:01:04;;;;;;;61.10;32.53;;;;;;;;;;5015862;28;20026;-64
2021/03/16 01:03:29;;;;;;;57.35;30.88;;;;;;;;;;5015653;28;20470;-64
2021/03/16 01:05:55;;;;;;;60.70;31.65;;;;;;;;;;4998392;28;20021;-64
2021/03/16 01:08:21;;;;;;;59.80;31.15;;;;;;;;;;5015845;28;20116;-64
2021/03/16 01:10:48;;;;;;;60.25;31.85;;;;;;;;;;5015553;28;20037;-64
2021/03/16 01:13:22;;;;;;;63.25;33.28;;;;;;;;;;5015460;28;20030;-64
2021/03/16 01:15:51;;;;;;;63.78;31.50;;;;;;;;;;5015135;28;20054;-64
2021/03/16 01:18:17;;;;;;;63.72;31.77;;;;;;;;;;4998037;28;20426;-64
2021/03/16 01:20:49;;;;;;;59.10;29.13;;;;;;;;;;5015426;28;20080;-64
2021/03/16 01:23:20;;;;;;;66.72;33.67;;;;;;;;;;5015275;28;20026;-64
2021/03/16 01:25:46;;;;;;;64.38;32.05;;;;;;;;;;5015276;28;20037;-64
2021/03/16 01:28:11;;;;;;;50.08;27.20;;;;;;;;;;5015330;28;20029;-64
2021/03/16 01:30:36;;;;;;;54.92;29.23;;;;;;;;;;5015289;28;20437;-64
2021/03/16 01:33:02;;;;;;;54.30;28.17;;;;;;;;;;5015180;28;20396;-64
2021/03/16 01:35:28;;;;;;;54.55;28.63;;;;;;;;;;5015022;28;20478;-64
2021/03/16 01:37:56;;;;;;;55.15;29.17;;;;;;;;;;5015033;28;20025;-64
2021/03/16 01:40:38;;;;;;;54.75;28.50;;;;;;;;;;4997423;28;20517;-65
2021/03/16 01:43:08;;;;;;;56.83;28.92;;;;;;;;;;5015103;28;20076;-65
2021/03/16 01:45:34;;;;;;;55.22;27.67;;;;;;;;;;5014893;28;20030;-65
2021/03/16 01:47:59;;;;;;;52.00;28.15;;;;;;;;;;5014950;28;20030;-65
2021/03/16 01:50:25;;;;;;;51.58;27.63;;;;;;;;;;5014847;28;20128;-65
2021/03/16 01:52:53;;;;;;;51.88;27.20;;;;;;;;;;5014860;28;20030;-65
2021/03/16 01:55:19;;;;;;;51.83;26.40;;;;;;;;;;5014681;28;20026;-65
2021/03/16 01:57:46;;;;;;;46.03;25.60;;;;;;;;;;5014732;28;20034;-64
2021/03/16 02:00:34;;;;;;;57.15;29.20;;;;;;;;;;5014992;28;20157;-64
2021/03/16 02:03:18;;;;;;;51.40;27.48;;;;;;;;;;5014926;28;20053;-64
2021/03/16 02:06:03;;;;;;;50.38;27.50;;;;;;;;;;5027944;28;20044;-64
2021/03/16 02:08:52;;;;;;;49.22;26.52;;;;;;;;;;5014952;28;20045;-64
2021/03/16 02:11:44;;;;;;;46.90;26.27;;;;;;;;;;5014135;28;20101;-63
2021/03/16 02:14:30;;;;;;;46.00;24.50;;;;;;;;;;4999582;28;20461;-64
2021/03/16 02:17:20;;;;;;;43.05;23.88;;;;;;;;;;5014322;28;20164;-63
2021/03/16 02:20:23;;;;;;;35.30;21.95;;;;;;;;;;5014574;28;20398;-63
2021/03/16 02:23:08;;;;;;;39.42;21.23;;;;;;;;;;5014733;28;20049;-63
2021/03/16 02:26:12;;;;;;;38.70;21.58;;;;;;;;;;5014664;28;20121;-63
2021/03/16 02:29:07;;;;;;;38.30;22.30;;;;;;;;;;5014490;28;20044;-63
2021/03/16 02:31:53;;;;;;;39.88;22.35;;;;;;;;;;5014572;28;20091;-63
2021/03/16 02:34:39;;;;;;;37.92;22.02;;;;;;;;;;5014502;28;20645;-63
2021/03/16 02:37:25;;;;;;;43.55;22.23;;;;;;;;;;5014525;28;20173;-63
2021/03/16 02:40:10;;;;;;;36.35;19.70;;;;;;;;;;5014187;28;20032;-64
2021/03/16 02:42:58;;;;;;;22.33;14.00;;;;;;;;;;5014330;28;20096;-63
2021/03/16 02:45:46;;;;;;;19.98;12.05;;;;;;;;;;5013917;28;20536;-63
2021/03/16 02:48:31;;;;;;;25.40;14.98;;;;;;;;;;5014329;28;20064;-63
2021/03/16 02:51:16;;;;;;;25.27;14.13;;;;;;;;;;5013878;28;20092;-63
2021/03/16 02:53:59;;;;;;;18.80;12.27;;;;;;;;;;5014062;28;20437;-63
2021/03/16 02:56:44;;;;;;;18.45;11.48;;;;;;;;;;5013832;28;20432;-63
2021/03/16 02:59:28;;;;;;;24.75;14.77;;;;;;;;;;5014150;28;20040;-63
2021/03/16 03:02:13;;;;;;;24.23;14.50;;;;;;;;;;5014109;28;20049;-63
2021/03/16 03:04:58;;;;;;;21.75;13.55;;;;;;;;;;5013971;28;20091;-63
2021/03/16 03:07:43;;;;;;;24.77;13.98;;;;;;;;;;5013500;28;20504;-63
2021/03/16 03:10:27;;;;;;;27.35;15.27;;;;;;;;;;5013854;28;20052;-63
2021/03/16 03:13:11;;;;;;;27.13;15.43;;;;;;;;;;5013578;28;20409;-63
2021/03/16 03:15:55;;;;;;;36.13;17.70;;;;;;;;;;5012916;28;20113;-63
2021/03/16 03:18:39;;;;;;;36.72;18.88;;;;;;;;;;5013440;28;20528;-63
2021/03/16 03:21:30;;;;;;;35.53;20.83;;;;;;;;;;5013885;28;20060;-62
2021/03/16 03:24:20;;;;;;;34.13;18.77;;;;;;;;;;5013800;28;20077;-62
2021/03/16 03:27:06;;;;;;;33.30;17.98;;;;;;;;;;5012930;28;20041;-62
2021/03/16 03:29:52;;;;;;;35.33;18.98;;;;;;;;;;5013293;28;20044;-62
2021/03/16 03:32:38;;;;;;;35.55;18.45;;;;;;;;;;5013751;28;20045;-62
2021/03/16 03:35:22;;;;;;;38.97;20.10;;;;;;;;;;5013373;28;20040;-62
2021/03/16 03:38:08;;;;;;;37.33;19.98;;;;;;;;;;5013409;28;20045;-63
2021/03/16 03:40:52;;;;;;;43.10;22.17;;;;;;;;;;5013225;28;20548;-62
2021/03/16 03:43:37;;;;;;;40.20;21.25;;;;;;;;;;4998643;28;20096;-62
2021/03/16 03:46:21;;;;;;;36.00;19.63;;;;;;;;;;5013258;28;20544;-62
2021/03/16 03:49:05;;;;;;;34.72;18.65;;;;;;;;;;5013383;28;20045;-63
2021/03/16 03:51:49;;;;;;;34.10;19.13;;;;;;;;;;5013500;28;20049;-63
2021/03/16 03:54:34;;;;;;;32.20;18.23;;;;;;;;;;5013342;28;20064;-63
2021/03/16 03:57:19;;;;;;;30.23;16.45;;;;;;;;;;5013006;28;20099;-63
2021/03/16 04:00:03;;;;;;;27.75;15.85;;;;;;;;;;5013089;28;20111;-63
2021/03/16 04:02:49;;;;;;;31.25;17.17;;;;;;;;;;5012581;28;20049;-62
2021/03/16 04:05:33;;;;;;;30.75;16.92;;;;;;;;;;5013199;28;20037;-62
2021/03/16 04:08:18;;;;;;;33.00;17.75;;;;;;;;;;5012923;28;20046;-62
2021/03/16 04:11:02;;;;;;;28.38;16.02;;;;;;;;;;5012978;28;20049;-62
2021/03/16 04:13:47;;;;;;;24.67;14.25;;;;;;;;;;4998235;28;20049;-62
2021/03/16 04:16:32;;;;;;;26.98;14.27;;;;;;;;;;5012784;28;20053;-62
2021/03/16 04:19:16;;;;;;;24.83;13.43;;;;;;;;;;5012954;28;20045;-62
2021/03/16 04:22:00;;;;;;;23.00;12.95;;;;;;;;;;5013092;28;20524;-62
2021/03/16 04:24:46;;;;;;;29.65;17.35;;;;;;;;;;5013149;28;20041;-63
2021/03/16 04:27:30;;;;;;;33.45;18.50;;;;;;;;;;5012839;28;20130;-63
2021/03/16 04:30:14;;;;;;;27.13;16.08;;;;;;;;;;5013082;28;20173;-63
2021/03/16 04:33:03;;;;;;;38.85;24.15;;;;;;;;;;5013056;28;20175;-63
2021/03/16 04:35:47;;;;;;;54.00;31.20;;;;;;;;;;4998127;28;20052;-64
2021/03/16 04:38:31;;;;;;;63.20;39.97;;;;;;;;;;5013030;28;20041;-64
2021/03/16 04:41:15;;;;;;;46.85;26.77;;;;;;;;;;5016357;28;20041;-63
2021/03/16 04:43:59;;;;;;;31.35;16.75;;;;;;;;;;5016591;28;20036;-63
2021/03/16 04:46:43;;;;;;;29.92;16.50;;;;;;;;;;5016498;28;20397;-63
2021/03/16 04:49:30;;;;;;;31.48;17.70;;;;;;;;;;5016445;28;20080;-62
2021/03/16 04:52:14;;;;;;;43.05;25.63;;;;;;;;;;5016127;28;20041;-62
2021/03/16 04:55:01;;;;;;;39.83;22.48;;;;;;;;;;5015940;28;20036;-62
2021/03/16 04:57:45;;;;;;;36.08;20.05;;;;;;;;;;5016237;28;20519;-63
2021/03/16 05:00:29;;;;;;;41.35;22.25;;;;;;;;;;5016306;28;20080;-62
2021/03/16 05:03:13;;;;;;;35.33;20.35;;;;;;;;;;5016257;28;20073;-62
2021/03/16 05:05:57;;;;;;;37.05;21.73;;;;;;;;;;5015872;28;20041;-62
2021/03/16 05:08:41;;;;;;;49.03;26.98;;;;;;;;;;5016087;28;20145;-62
2021/03/16 05:11:27;;;;;;;52.25;27.55;;;;;;;;;;5016070;28;20109;-62
2021/03/16 05:14:11;;;;;;;58.53;29.77;;;;;;;;;;5015837;28;20048;-62
2021/03/16 05:16:55;;;;;;;77.35;34.88;;;;;;;;;;5015796;28;20052;-62
2021/03/16 05:19:39;;;;;;;72.72;33.80;;;;;;;;;;5015837;28;20060;-62
2021/03/16 05:22:23;;;;;;;74.90;34.28;;;;;;;;;;5015646;28;20119;-62
2021/03/16 05:25:07;;;;;;;70.05;33.45;;;;;;;;;;5015990;28;20137;-62
2021/03/16 05:27:51;;;;;;;67.47;32.85;;;;;;;;;;5015743;28;20048;-62
2021/03/16 05:30:35;;;;;;;70.15;32.03;;;;;;;;;;5015676;28;20072;-62
2021/03/16 05:33:19;;;;;;;66.53;31.48;;;;;;;;;;5015638;28;20511;-62
2021/03/16 05:36:04;;;;;;;65.63;30.52;;;;;;;;;;5015607;28;20165;-62
2021/03/16 05:38:49;;;;;;;64.05;29.02;;;;;;;;;;5028135;28;20045;-62
2021/03/16 05:41:36;;;;;;;59.70;28.58;;;;;;;;;;5015431;28;20405;-62
2021/03/16 05:44:20;;;;;;;59.17;29.45;;;;;;;;;;5015112;28;20496;-62
2021/03/16 05:47:05;;;;;;;46.42;24.33;;;;;;;;;;5015387;28;20095;-62
2021/03/16 05:49:52;;;;;;;37.60;20.80;;;;;;;;;;5014986;28;20100;-62
2021/03/16 05:52:36;;;;;;;37.88;19.45;;;;;;;;;;5015656;28;20041;-62
2021/03/16 05:55:22;;;;;;;31.08;16.52;;;;;;;;;;5015686;28;20084;-62
2021/03/16 05:58:07;;;;;;;24.50;14.20;;;;;;;;;;5015476;28;20501;-62
2021/03/16 06:00:51;;;;;;;23.80;14.13;;;;;;;;;;5015568;28;20543;-62
2021/03/16 06:03:35;;;;;;;33.90;19.63;;;;;;;;;;5015497;28;20041;-63
2021/03/16 06:06:20;;;;;;;94.13;66.43;;;;;;;;;;5028591;28;20112;-64
2021/03/16 06:09:04;;;;;;;57.63;34.78;;;;;;;;;;5015369;28;20091;-64
2021/03/16 06:11:49;;;;;;;67.07;42.15;;;;;;;;;;5015284;28;20108;-63
2021/03/16 06:14:33;;;;;;;63.08;38.88;;;;;;;;;;5014859;28;20123;-63
2021/03/16 06:17:18;;;;;;;58.00;31.08;;;;;;;;;;5015506;28;20048;-63
2021/03/16 06:20:02;;;;;;;72.43;44.85;;;;;;;;;;5014728;28;20508;-63
2021/03/16 06:22:46;;;;;;;71.43;36.90;;;;;;;;;;5014613;28;20091;-63
2021/03/16 06:25:40;;;;;;;74.07;39.17;;;;;;;;;;5014604;28;20044;-62
2021/03/16 06:28:33;;;;;;;64.32;36.38;;;;;;;;;;5014379;28;20077;-62
2021/03/16 06:31:21;;;;;;;70.82;37.85;;;;;;;;;;5014415;28;20410;-63
2021/03/16 06:34:06;;;;;;;66.57;34.15;;;;;;;;;;5014305;28;20048;-62
2021/03/16 06:36:57;;;;;;;55.42;29.42;;;;;;;;;;5014491;28;20044;-62
2021/03/16 06:39:43;;;;;;;70.28;36.17;;;;;;;;;;5014465;28;20049;-62
2021/03/16 06:42:29;;;;;;;70.82;34.80;;;;;;;;;;5014119;28;20118;-62
2021/03/16 06:45:13;;;;;;;74.82;38.08;;;;;;;;;;5014494;28;20033;-62
2021/03/16 06:47:57;;;;;;;76.18;35.70;;;;;;;;;;5014486;28;20041;-62
2021/03/16 06:50:42;;;;;;;77.57;37.25;;;;;;;;;;5014671;28;20041;-62
2021/03/16 06:53:27;;;;;;;54.45;24.50;;;;;;;;;;5014782;28;20065;-62
2021/03/16 06:56:11;;;;;;;51.50;24.67;;;;;;;;;;5012306;28;20041;-62
2021/03/16 06:58:57;;;;;;;53.17;26.27;;;;;;;;;;5013110;28;20069;-62
2021/03/16 07:01:41;;;;;;;64.68;32.47;;;;;;;;;;4999473;28;20091;-65
2021/03/16 07:04:29;;;;;;;65.22;31.13;;;;;;;;;;5014121;28;20540;-65
2021/03/16 07:07:13;;;;;;;69.93;33.88;;;;;;;;;;5014017;28;20088;-65
2021/03/16 07:10:00;;;;;;;69.63;39.10;;;;;;;;;;4989367;28;20041;-65
2021/03/16 07:12:45;;;;;;;49.92;29.35;;;;;;;;;;5011615;28;20096;-65
2021/03/16 07:15:30;;;;;;;44.60;23.83;;;;;;;;;;5013205;28;20057;-62
2021/03/16 07:18:15;;;;;;;43.60;24.02;;;;;;;;;;5013476;28;20398;-62
2021/03/16 07:21:04;;;;;;;45.92;23.48;;;;;;;;;;5013413;28;20102;-62
2021/03/16 07:24:18;;;;;;;39.80;21.10;;;;;;;;;;4998626;28;20080;-62
2021/03/16 07:27:02;;;;;;;50.30;27.13;;;;;;;;;;5009293;28;20033;-62
2021/03/16 07:29:47;;;;;;;45.28;22.42;;;;;;;;;;5019222;28;20516;-62
2021/03/16 07:32:31;;;;;;;38.13;22.10;;;;;;;;;;5012386;28;20037;-62
2021/03/16 07:35:15;;;;;;;48.90;26.88;;;;;;;;;;5012870;28;20385;-62
2021/03/16 07:38:00;;;;;;;42.75;25.40;;;;;;;;;;5012371;28;20103;-62
2021/03/16 07:40:45;;;;;;;50.53;27.58;;;;;;;;;;5012585;28;20044;-62
2021/03/16 07:43:30;;;;;;;51.53;28.08;;;;;;;;;;5011642;28;20037;-62
2021/03/16 07:46:15;;;;;;;48.28;24.98;;;;;;;;;;5012489;28;20041;-62
2021/03/16 07:48:59;;;;;;;43.53;24.13;;;;;;;;;;5013388;28;20036;-62
2021/03/16 07:51:44;;;;;;;39.55;21.92;;;;;;;;;;5013429;28;20176;-62
2021/03/16 07:54:36;;;;;;;39.70;21.08;;;;;;;;;;5013374;28;20036;-62
2021/03/16 07:57:27;;;;;;;38.33;22.75;;;;;;;;;;5013324;28;20108;-62
2021/03/16 08:00:13;;;;;;;39.25;22.70;;;;;;;;;;5013232;28;20398;-62
2021/03/16 08:02:58;;;;;;;35.70;22.08;;;;;;;;;;5013354;28;20085;-62
2021/03/16 08:05:43;;;;;;;45.83;25.52;;;;;;;;;;5012453;28;20041;-62
2021/03/16 08:08:37;;;;;;;40.80;23.40;;;;;;;;;;5011537;28;20529;-62
2021/03/16 08:11:21;;;;;;;36.65;20.10;;;;;;;;;;5005842;28;20045;-62
2021/03/16 08:14:05;;;;;;;33.97;19.83;;;;;;;;;;5009326;28;20036;-62
2021/03/16 08:16:51;;;;;;;31.67;18.10;;;;;;;;;;5011132;28;20076;-62
2021/03/16 08:19:36;;;;;;;28.48;15.82;;;;;;;;;;5018546;28;20092;-62
2021/03/16 08:22:22;;;;;;;24.08;14.38;;;;;;;;;;4997023;28;20112;-62
2021/03/16 08:25:07;;;;;;;24.33;15.60;;;;;;;;;;5016205;28;20040;-62
2021/03/16 08:27:51;;;;;;;33.47;18.90;;;;;;;;;;5016120;28;20068;-62
2021/03/16 08:30:36;;;;;;;33.60;16.17;;;;;;;;;;5016700;28;20560;-62
2021/03/16 08:33:20;;;;;;;30.83;15.32;;;;;;;;;;5016353;28;20057;-62
2021/03/16 08:36:04;;;;;;;32.60;15.75;;;;;;;;;;5036368;28;20048;-62
2021/03/16 08:38:50;;;;;;;30.63;17.10;;;;;;;;;;5036188;28;20408;-62
2021/03/16 08:41:34;;;;;;;26.50;15.35;;;;;;;;;;5036105;28;20060;-62
2021/03/16 08:44:19;;;;;;;26.15;15.10;;;;;;;;;;5036209;28;20443;-62
2021/03/16 08:47:08;;;;;;;34.22;20.05;;;;;;;;;;5036495;28;20051;-62
2021/03/16 08:49:55;;;;;;;38.45;22.50;;;;;;;;;;5037016;28;20175;-62
2021/03/16 08:52:40;;;;;;;27.13;16.58;;;;;;;;;;5036127;28;20171;-62
2021/03/16 08:55:28;;;;;;;24.83;15.80;;;;;;;;;;5036087;28;20052;-62
2021/03/16 08:58:12;;;;;;;30.15;18.63;;;;;;;;;;5035815;28;20040;-62
2021/03/16 09:00:58;;;;;;;29.45;18.52;;;;;;;;;;5020624;28;20039;-62
2021/03/16 09:03:42;;;;;;;38.25;23.58;;;;;;;;;;5035596;28;20111;-62
2021/03/16 09:06:26;;;;;;;35.53;22.13;;;;;;;;;;5035753;28;20035;-63
2021/03/16 09:09:10;;;;;;;34.03;21.40;;;;;;;;;;5035511;28;20167;-63
2021/03/16 09:11:54;;;;;;;27.63;17.35;;;;;;;;;;5035615;28;20048;-63
2021/03/16 09:14:39;;;;;;;24.73;16.83;;;;;;;;;;5034868;28;20099;-63
2021/03/16 09:17:24;;;;;;;23.70;15.63;;;;;;;;;;5035487;28;20111;-63
2021/03/16 09:20:18;;;;;;;15.68;11.52;;;;;;;;;;5020494;28;20115;-63
2021/03/16 09:23:06;;;;;;;25.70;15.43;;;;;;;;;;5035552;28;20041;-63
2021/03/16 09:25:50;;;;;;;24.83;15.95;;;;;;;;;;5034578;28;20031;-63
2021/03/16 09:28:34;;;;;;;14.25;11.45;;;;;;;;;;5033619;28;20397;-63
2021/03/16 09:31:20;;;;;;;19.58;13.50;;;;;;;;;;5035210;28;20044;-63
2021/03/16 09:34:04;;;;;;;19.83;12.77;;;;;;;;;;5035419;28;20189;-63
2021/03/16 09:37:02;;;;;;;18.25;13.32;;;;;;;;;;5034252;28;20049;-62
2021/03/16 09:39:31;;;;;;;21.48;14.30;;;;;;;;;;5034139;28;20491;-62
2021/03/16 09:42:12;;;;;;;20.60;12.43;;;;;;;;;;5016919;28;20018;-63
2021/03/16 09:44:42;;;;;;;20.75;13.00;;;;;;;;;;5034790;28;20036;-63
2021/03/16 09:47:08;;;;;;;;;;;;;;;;;;5035188;28;20551;-63
2021/03/16 09:49:35;;;;;;;20.40;14.45;;;;;;;;;;5034395;28;19909;-63
2021/03/16 09:52:02;;;;;;;18.42;12.93;;;;;;;;;;5034368;28;20039;-63
2021/03/16 09:54:33;;;;;;;20.05;14.02;;;;;;;;;;5034302;28;20022;-62
2021/03/16 09:56:59;;;;;;;21.27;15.23;;;;;;;;;;5034439;28;20038;-63
2021/03/16 09:59:24;;;;;;;20.60;12.40;;;;;;;;;;5034549;28;20018;-62
2021/03/16 10:01:50;;;;;;;17.45;10.75;;;;;;;;;;5034576;28;20022;-62
2021/03/16 10:04:15;;;;;;;18.63;11.88;;;;;;;;;;5033475;28;20013;-62
2021/03/16 10:06:44;;;;;;;21.50;13.57;;;;;;;;;;5033940;28;20021;-62
2021/03/16 10:09:18;;;;;;;15.88;11.00;;;;;;;;;;5034112;28;20021;-62
2021/03/16 10:11:44;;;;;;;20.55;14.52;;;;;;;;;;5034263;28;20030;-62
2021/03/16 10:14:09;;;;;;;21.85;14.15;;;;;;;;;;5034172;28;20025;-62
2021/03/16 10:16:39;;;;;;;17.23;11.23;;;;;;;;;;5016419;28;20394;-62
2021/03/16 10:19:05;;;;;;;17.08;11.98;;;;;;;;;;5034080;28;20033;-62
2021/03/16 10:21:32;;;;;;;15.10;10.02;;;;;;;;;;5033876;28;20536;-63
2021/03/16 10:23:58;;;;;;;14.50;9.70;;;;;;;;;;5034248;28;20056;-63
2021/03/16 10:26:24;;;;;;;16.23;10.63;;;;;;;;;;5033937;28;20029;-63
2021/03/16 10:28:50;;;;;;;12.88;9.43;;;;;;;;;;5034059;28;20105;-63
2021/03/16 10:31:18;;;;;;;10.98;7.88;;;;;;;;;;5034691;28;20053;-63
2021/03/16 10:33:44;;;;;;;11.32;9.07;;;;;;;;;;5034415;28;20025;-63
2021/03/16 10:36:10;;;;;;;11.07;8.05;;;;;;;;;;5016608;28;20152;-63
2021/03/16 10:38:35;;;;;;;8.98;6.32;;;;;;;;;;5034295;28;20033;-63
2021/03/16 10:41:01;;;;;;;11.05;7.95;;;;;;;;;;5033907;28;20088;-63
2021/03/16 10:43:27;;;;;;;9.73;7.85;;;;;;;;;;5034055;28;20014;-63
2021/03/16 10:45:53;;;;;;;10.27;8.20;;;;;;;;;;5022194;28;20113;-65
2021/03/16 10:48:19;;;;;;;10.48;7.28;;;;;;;;;;4995784;28;20445;-65
2021/03/16 10:50:45;;;;;;;8.98;7.35;;;;;;;;;;5009711;28;20108;-65
2021/03/16 10:53:12;;;;;;;12.00;9.00;;;;;;;;;;5013910;28;20028;-65
2021/03/16 10:55:38;;;;;;;10.77;7.53;;;;;;;;;;5014061;28;20033;-66
2021/03/16 10:58:03;;;;;;;9.98;7.05;;;;;;;;;;5014127;28;20029;-65
2021/03/16 11:00:29;;;;;;;12.02;8.73;;;;;;;;;;5014077;28;20081;-66
2021/03/16 11:02:54;;;;;;;9.20;8.23;;;;;;;;;;5029076;28;20021;-65
2021/03/16 11:05:20;;;;;;;11.18;7.88;;;;;;;;;;5014076;28;20030;-65
2021/03/16 11:07:45;;;;;;;10.35;8.90;;;;;;;;;;5013763;28;20018;-65
2021/03/16 11:10:11;;;;;;;11.40;8.45;;;;;;;;;;5013912;28;20044;-65
2021/03/16 11:12:37;;;;;;;10.75;7.50;;;;;;;;;;5014047;28;20029;-65
2021/03/16 11:15:03;;;;;;;19.35;10.02;;;;;;;;;;5013229;28;20120;-66
2021/03/16 11:17:34;;;;;;;13.80;8.98;;;;;;;;;;4995605;28;20131;-65
2021/03/16 11:20:18;;;;;;;15.52;8.77;;;;;;;;;;4997153;28;20117;-65
2021/03/16 11:22:56;;;;;;;12.07;8.77;;;;;;;;;;5012218;28;20041;-65
2021/03/16 11:25:25;;;;;;;12.43;9.52;;;;;;;;;;5011783;28;20041;-65
2021/03/16 11:27:53;;;;;;;8.05;6.95;;;;;;;;;;5012431;28;20026;-65
2021/03/16 11:30:22;;;;;;;9.50;8.60;;;;;;;;;;4980202;28;20061;-65
2021/03/16 11:32:56;;;;;;;10.75;9.00;;;;;;;;;;4980118;28;20037;-65
2021/03/16 11:35:40;;;;;;;9.07;7.85;;;;;;;;;;4999052;28;20061;-65
2021/03/16 11:38:24;;;;;;;9.20;8.20;;;;;;;;;;5013926;28;20103;-63
2021/03/16 11:41:09;;;;;;;8.23;6.78;;;;;;;;;;5014119;28;20056;-63
2021/03/16 11:43:52;;;;;;;8.70;7.80;;;;;;;;;;5014174;28;20041;-63
2021/03/16 11:46:37;;;;;;;8.88;7.72;;;;;;;;;;5013936;28;20096;-63
2021/03/16 11:49:20;;;;;;;20.48;13.15;;;;;;;;;;5015432;28;20088;-63
2021/03/16 11:52:04;;;;;;;20.58;13.05;;;;;;;;;;5017880;28;20135;-63
2021/03/16 11:54:49;;;;;;;63.28;36.70;;;;;;;;;;5017786;28;20056;-63
2021/03/16 11:57:33;;;;;;;20.63;14.88;;;;;;;;;;5007560;28;20093;-65
2021/03/16 12:00:17;;;;;;;9.77;7.60;;;;;;;;;;4998384;28;20053;-65
2021/03/16 12:03:01;;;;;;;9.90;7.85;;;;;;;;;;5016090;28;20121;-65
2021/03/16 12:05:45;;;;;;;9.13;7.32;;;;;;;;;;5017786;28;20146;-65
2021/03/16 12:08:31;;;;;;;60.88;37.22;;;;;;;;;;5014713;28;20045;-65
2021/03/16 12:11:15;;;;;;;14.30;9.57;;;;;;;;;;5017089;28;20045;-65
2021/03/16 12:13:59;;;;;;;8.15;7.30;;;;;;;;;;5017659;28;20045;-64
2021/03/16 12:16:44;;;;;;;11.52;7.80;;;;;;;;;;5017578;28;20108;-64
2021/03/16 12:19:28;;;;;;;6.63;5.93;;;;;;;;;;5016534;28;20165;-64
2021/03/16 12:22:12;;;;;;;7.70;5.90;;;;;;;;;;5016868;28;20040;-64
2021/03/16 12:24:56;;;;;;;8.45;6.88;;;;;;;;;;5016193;28;20392;-64
2021/03/16 12:27:40;;;;;;;9.20;5.88;;;;;;;;;;5011070;28;20421;-64
2021/03/16 12:30:25;;;;;;;8.73;7.40;;;;;;;;;;5016089;28;20044;-64
2021/03/16 12:33:09;;;;;;;8.52;6.97;;;;;;;;;;5016880;28;20380;-64
2021/03/16 12:35:54;;;;;;;6.88;6.28;;;;;;;;;;5017179;28;20040;-64
2021/03/16 12:38:39;;;;;;;10.05;7.75;;;;;;;;;;5017040;28;20083;-64
2021/03/16 12:41:24;;;;;;;11.63;8.82;;;;;;;;;;5016288;28;20076;-63
2021/03/16 12:44:08;;;;;;;12.30;9.50;;;;;;;;;;5014069;28;20045;-63
2021/03/16 12:46:52;;;;;;;9.77;7.82;;;;;;;;;;5015509;28;20121;-63
2021/03/16 12:49:36;;;;;;;11.10;8.00;;;;;;;;;;5016606;28;20036;-63
2021/03/16 12:52:20;;;;;;;9.63;7.97;;;;;;;;;;5019704;28;20037;-63
2021/03/16 12:55:05;;;;;;;7.60;6.85;;;;;;;;;;5015975;28;20065;-63
2021/03/16 12:57:49;;;;;;;14.57;12.63;;;;;;;;;;5016016;28;20095;-63
2021/03/16 13:00:33;;;;;;;14.63;12.02;;;;;;;;;;5028719;28;20041;-63
2021/03/16 13:03:17;;;;;;;9.90;8.10;;;;;;;;;;5015524;28;20036;-63
2021/03/16 13:06:01;;;;;;;10.55;8.60;;;;;;;;;;5015829;28;20049;-62
2021/03/16 13:08:45;;;;;;;10.48;8.35;;;;;;;;;;5035753;28;20056;-63
2021/03/16 13:11:30;;;;;;;11.00;8.38;;;;;;;;;;5020869;28;20081;-63
2021/03/16 13:14:14;;;;;;;9.02;7.70;;;;;;;;;;5015497;28;20088;-63
2021/03/16 13:16:59;;;;;;;9.43;8.30;;;;;;;;;;5015873;28;20214;-63
2021/03/16 13:19:42;;;;;;;10.20;8.15;;;;;;;;;;5028976;28;20049;-63
2021/03/16 13:22:26;;;;;;;11.90;8.27;;;;;;;;;;5015811;28;20095;-63
2021/03/16 13:25:10;;;;;;;10.00;8.52;;;;;;;;;;5015662;28;20087;-63
2021/03/16 13:27:54;;;;;;;9.63;8.52;;;;;;;;;;5015665;28;20076;-63
2021/03/16 13:30:38;;;;;;;10.57;7.95;;;;;;;;;;5015637;28;20088;-63
2021/03/16 13:33:22;;;;;;;8.75;7.85;;;;;;;;;;5028540;28;20528;-63
2021/03/16 13:36:06;;;;;;;11.10;8.68;;;;;;;;;;5015371;28;20041;-63
2021/03/16 13:38:50;;;;;;;9.20;7.63;;;;;;;;;;5028242;28;20120;-63
2021/03/16 13:41:34;;;;;;;9.38;7.68;;;;;;;;;;5028317;28;20045;-63
2021/03/16 13:44:18;;;;;;;10.75;8.15;;;;;;;;;;5014106;28;20072;-63
2021/03/16 13:47:02;;;;;;;8.45;7.25;;;;;;;;;;5014389;28;20064;-63
2021/03/16 13:49:47;;;;;;;9.27;7.72;;;;;;;;;;5014688;28;20084;-63
2021/03/16 13:52:31;;;;;;;11.02;7.80;;;;;;;;;;5014710;28;20100;-63
2021/03/16 13:55:15;;;;;;;10.50;7.93;;;;;;;;;;5014665;28;20116;-64
2021/03/16 13:57:59;;;;;;;6.53;5.45;;;;;;;;;;5014502;28;20520;-64
2021/03/16 14:00:44;;;;;;;9.35;7.10;;;;;;;;;;5015075;28;20041;-64
2021/03/16 14:03:31;;;;;;;6.82;5.38;;;;;;;;;;5014893;28;20444;-64
2021/03/16 14:06:15;;;;;;;7.05;5.45;;;;;;;;;;5014986;28;20504;-64
2021/03/16 14:09:00;;;;;;;5.93;4.95;;;;;;;;;;5014986;28;20095;-64
2021/03/16 14:11:44;;;;;;;10.40;8.70;;;;;;;;;;5014091;28;20044;-64
2021/03/16 14:14:28;;;;;;;7.70;6.43;;;;;;;;;;5014538;28;20049;-64
2021/03/16 14:17:12;;;;;;;9.90;8.23;;;;;;;;;;5014940;28;20060;-64
2021/03/16 14:19:56;;;;;;;1030.10;433.67;;;;;;;;;;5014946;28;20570;-64
2021/03/16 14:22:41;;;;;;;28.17;17.50;;;;;;;;;;5014855;28;20049;-64
2021/03/16 14:25:25;;;;;;;1146.53;458.73;;;;;;;;;;5014682;28;20567;-64
2021/03/16 14:28:10;;;;;;;313.33;130.63;;;;;;;;;;5014642;28;20112;-64
2021/03/16 14:30:54;;;;;;;15.35;9.93;;;;;;;;;;5014655;28;20044;-64
2021/03/16 14:33:38;;;;;;;9.45;6.65;;;;;;;;;;5014520;28;20037;-64
2021/03/16 14:36:22;;;;;;;12.23;9.13;;;;;;;;;;5014472;28;20125;-64
2021/03/16 14:39:07;;;;;;;238.13;77.78;;;;;;;;;;5014212;28;20133;-64
2021/03/16 14:41:51;;;;;;;13.55;10.23;;;;;;;;;;5014273;28;20153;-64
2021/03/16 14:44:35;;;;;;;21.30;13.38;;;;;;;;;;5014524;28;20398;-64
2021/03/16 14:47:19;;;;;;;12.10;8.13;;;;;;;;;;5014567;28;20044;-64
2021/03/16 14:50:04;;;;;;;9.02;6.90;;;;;;;;;;4999780;28;20541;-64
2021/03/16 14:52:48;;;;;;;8.15;7.18;;;;;;;;;;5014781;28;20124;-64
2021/03/16 14:55:32;;;;;;;8.80;7.57;;;;;;;;;;5014523;28;20088;-64
2021/03/16 14:58:16;;;;;;;364.27;133.95;;;;;;;;;;5014655;28;20124;-63
2021/03/16 15:01:01;;;;;;;623.95;307.83;;;;;;;;;;4999984;28;20059;-63
2021/03/16 15:03:45;;;;;;;33.15;17.55;;;;;;;;;;5014755;28;20492;-63
2021/03/16 15:06:29;;;;;;;17.13;11.95;;;;;;;;;;5014595;28;20044;-63
2021/03/16 15:09:13;;;;;;;61.65;30.48;;;;;;;;;;5014340;28;20151;-63
2021/03/16 15:11:57;;;;;;;14.63;10.23;;;;;;;;;;5014392;28;20052;-62
2021/03/16 15:14:42;;;;;;;92.03;36.78;;;;;;;;;;5008552;28;20062;-63
2021/03/16 15:17:27;;;;;;;401.90;185.13;;;;;;;;;;4994458;28;20093;-63
2021/03/16 15:20:11;;;;;;;306.45;129.48;;;;;;;;;;5007554;28;20509;-63
2021/03/16 15:22:55;;;;;;;239.27;106.95;;;;;;;;;;4994439;28;20049;-63
2021/03/16 15:25:39;;;;;;;42.92;22.13;;;;;;;;;;4994397;28;20045;-63
2021/03/16 15:28:24;;;;;;;168.73;74.45;;;;;;;;;;4994156;28;20077;-63
2021/03/16 15:31:08;;;;;;;16.98;11.38;;;;;;;;;;4994046;28;20052;-62
2021/03/16 15:33:51;;;;;;;357.80;191.50;;;;;;;;;;4994023;28;20078;-62
2021/03/16 15:36:35;;;;;;;68.82;37.60;;;;;;;;;;4993872;28;20045;-63
2021/03/16 15:39:20;;;;;;;78.90;45.20;;;;;;;;;;4993244;28;20060;-63